Forside
METAR-TAF:

METAR-TAF

Lufthavne :

Jeddah International Airport

Jeddah, Saudi-Arabien

Breddekreds: 21-42N, længdekreds: 039-11E, højde: 15 m

Aktuelle vejr

Denne rapport blev lavet for 8 minutter siden, kl. 13:00 UTC
Vind 9 kt fra vestsydvest
Temperatur 37°C
Fugtighed 54%
Tryk 1001 hPa
Sigt 10 km eller mere
Nogle få skyer i en højde af 4000 ft

METAR: OEJN 221300Z 25009KT 9999 FEW040 37/26 Q1001 NOSIG

Tid: 16:08 (13:08 UTC)

Vejrudsigter

Denne rapport blev lavet for 2 timer og 8 minutter siden, kl. 11:00 UTC
Foreløbig gælder fra 22 på 12 UTC til 23 på 18 UTC
Vind 6 kt fra vestsydvest med vindstød på up til 16 kt
Sigt 10 km eller mere
Nogle få skyer i en højde af 4000 ft
ændring
fra 22 på 18 UTC til 22 på 20 UTC
Vind 3 kt fra varierende retninger

TAF: OEJN 221100Z 2212/2318 25006G16KT 9999 FEW040 BECMG 2218/2220 VRB03KT

Vejrobservationer og prognoser fra mere end 4000 lufthavne (METAR og TAF).

De gule og røde prikker repræsenterer de meteorologiske stationer.

Flyt musen over at se navnet på stationen.

Så klik over at se vejr observationer og prognoser.

At skifte det kort: Klik på de grønne knapper med et sort kors for at zoome ind; på den grønne knap med en bindestreg for at zoome ud; eller på de grønne pile for tilstødende kort.


METAR-TAF: